Yersin — 3AYE — position and weather

sailwx.info

Track history (hours):
 
Tides and Currents Weather Stations Pressure Air Temp Water Temp Dewpoint Dewpoint Depression Visibility Wind Speed Wind Dir Waves Ship Positions

Yersin

Last reported at 2017-Sep-10 02:20 UTC. Time now 2017-Sep-22 22:33 UTC.
Position N 30°01' W 016°03'.
Warning: this ship's position is 12 days out of date.

Length 76 m; draft 4.3 m.

Type: Pleasure craft. MMSI: 254721000.

Date/timePositionNaut miles runAvg speedWind from/ knotsBaromVisibWave heightAir tempDewpointWater temp
2017-Sep-10 02:20N 30°01' W 016°03'0 0.0
2017-Sep-10 00:39N 30°01' W 016°03'0 0.0
2017-Sep-09 23:47N 30°01' W 016°03'0 0.0
2017-Sep-09 23:28N 30°01' W 016°03'0 0.0
2017-Sep-09 23:00N 30°01' W 016°03'0 0.0
2017-Sep-09 22:30N 30°01' W 016°03'0 0.0
2017-Sep-09 22:00N 30°01' W 016°03'0 0.0
2017-Sep-09 21:30N 30°01' W 016°03'0 0.0
2017-Sep-09 20:59N 30°01' W 016°03'0 0.0
2017-Sep-09 20:30N 30°01' W 016°03'0 0.0
2017-Sep-09 19:40N 30°01' W 016°03'0 0.0
2017-Sep-09 19:29N 30°01' W 016°03'0 0.0
2017-Sep-09 19:00N 30°01' W 016°03'0 0.0
2017-Sep-09 18:18N 30°01' W 016°03'0 0.0
2017-Sep-09 18:00N 30°01' W 016°03'0 0.0
2017-Sep-09 17:30N 30°01' W 016°03'0 0.0
2017-Sep-09 16:53N 30°01' W 016°03'0 0.0
2017-Sep-09 16:27N 30°01' W 016°03'0 0.0
2017-Sep-09 15:54N 30°01' W 016°03'0 0.0
2017-Sep-09 15:22N 30°01' W 016°03'0 0.0
2017-Sep-09 15:00N 30°01' W 016°03'0 0.1
2017-Sep-09 14:28N 30°01' W 016°03'2 4.4
2017-Sep-09 14:00N 30°01' W 016°00'610.9
2017-Sep-09 13:29N 30°05' W 015°56'4 6.4
2017-Sep-09 12:49N 30°08' W 015°52'1 0.4
2017-Sep-09 10:21N 30°08' W 015°53'1 1.6
2017-Sep-09 09:52N 30°08' W 015°54'4 7.0
2017-Sep-09 09:21N 30°11' W 015°56'6 7.6
2017-Sep-09 08:31N 30°17' W 015°59'5 7.6
2017-Sep-09 07:55N 30°21' W 016°00'7 7.9
2017-Sep-09 07:00N 30°28' W 016°03'7 8.3
2017-Sep-09 06:11N 30°34' W 016°06'210.3
2017-Sep-09 06:00N 30°36' W 016°06'1710.7
2017-Sep-09 04:23N 30°53' W 016°13'511.1
2017-Sep-09 03:57N 30°57' W 016°14'4711.0
2017-Sep-08 23:41N 31°42' W 016°32'210.8
2017-Sep-08 23:30N 31°44' W 016°32'510.7
2017-Sep-08 23:00N 31°49' W 016°34'510.0
2017-Sep-08 22:30N 31°54' W 016°36'510.1
2017-Sep-08 22:00N 31°59' W 016°38'  
2017-Sep-05 02:32N 32°39' W 016°55'0 0.0
2017-Sep-05 02:17N 32°39' W 016°55'0 0.0
2017-Sep-05 00:05N 32°39' W 016°55'0 0.0
2017-Sep-04 23:50N 32°39' W 016°55'  
Track history (hours):
 
Tides and Currents Weather Stations Pressure Air Temp Water Temp Dewpoint Dewpoint Depression Visibility Wind Speed Wind Dir Waves Ship Positions

Yersin

Last reported at 2017-Sep-10 02:20 UTC. Time now 2017-Sep-22 22:33 UTC.
Position N 30°01' W 016°03'.
Warning: this ship's position is 12 days out of date.

Length 76 m; draft 4.3 m.

Type: Pleasure craft. MMSI: 254721000.

Date/timePositionNaut miles runAvg speedWind from/ knotsBaromVisibWave heightAir tempDewpointWater temp
2017-Sep-10 02:20N 30°01' W 016°03'0 0.0
2017-Sep-10 00:39N 30°01' W 016°03'0 0.0
2017-Sep-09 23:47N 30°01' W 016°03'0 0.0
2017-Sep-09 23:28N 30°01' W 016°03'0 0.0
2017-Sep-09 23:00N 30°01' W 016°03'0 0.0
2017-Sep-09 22:30N 30°01' W 016°03'0 0.0
2017-Sep-09 22:00N 30°01' W 016°03'0 0.0
2017-Sep-09 21:30N 30°01' W 016°03'0 0.0
2017-Sep-09 20:59N 30°01' W 016°03'0 0.0
2017-Sep-09 20:30N 30°01' W 016°03'0 0.0
2017-Sep-09 19:40N 30°01' W 016°03'0 0.0
2017-Sep-09 19:29N 30°01' W 016°03'0 0.0
2017-Sep-09 19:00N 30°01' W 016°03'0 0.0
2017-Sep-09 18:18N 30°01' W 016°03'0 0.0
2017-Sep-09 18:00N 30°01' W 016°03'0 0.0
2017-Sep-09 17:30N 30°01' W 016°03'0 0.0
2017-Sep-09 16:53N 30°01' W 016°03'0 0.0
2017-Sep-09 16:27N 30°01' W 016°03'0 0.0
2017-Sep-09 15:54N 30°01' W 016°03'0 0.0
2017-Sep-09 15:22N 30°01' W 016°03'0 0.0
2017-Sep-09 15:00N 30°01' W 016°03'0 0.1
2017-Sep-09 14:28N 30°01' W 016°03'2 4.4
2017-Sep-09 14:00N 30°01' W 016°00'610.9
2017-Sep-09 13:29N 30°05' W 015°56'4 6.4
2017-Sep-09 12:49N 30°08' W 015°52'1 0.4
2017-Sep-09 10:21N 30°08' W 015°53'1 1.6
2017-Sep-09 09:52N 30°08' W 015°54'4 7.0
2017-Sep-09 09:21N 30°11' W 015°56'6 7.6
2017-Sep-09 08:31N 30°17' W 015°59'5 7.6
2017-Sep-09 07:55N 30°21' W 016°00'7 7.9
2017-Sep-09 07:00N 30°28' W 016°03'7 8.3
2017-Sep-09 06:11N 30°34' W 016°06'210.3
2017-Sep-09 06:00N 30°36' W 016°06'1710.7
2017-Sep-09 04:23N 30°53' W 016°13'511.1
2017-Sep-09 03:57N 30°57' W 016°14'4711.0
2017-Sep-08 23:41N 31°42' W 016°32'210.8
2017-Sep-08 23:30N 31°44' W 016°32'510.7
2017-Sep-08 23:00N 31°49' W 016°34'510.0
2017-Sep-08 22:30N 31°54' W 016°36'510.1
2017-Sep-08 22:00N 31°59' W 016°38'  
2017-Sep-05 02:32N 32°39' W 016°55'0 0.0
2017-Sep-05 02:17N 32°39' W 016°55'0 0.0
2017-Sep-05 00:05N 32°39' W 016°55'0 0.0
2017-Sep-04 23:50N 32°39' W 016°55'  

Dump ship's entire track history